sensor_id;sensor_type;location;lat;lon;timestamp;P1;durP1;ratioP1;P2;durP2;ratioP2
75922;SDS011;64602;47.542;19.090;2023-02-28T06:49:46;8.60;;;4.47;;
75922;SDS011;64602;47.542;19.090;2023-02-28T06:54:48;8.60;;;4.10;;
75922;SDS011;64602;47.542;19.090;2023-02-28T07:00:03;10.40;;;5.07;;
75922;SDS011;64602;47.542;19.090;2023-02-28T07:05:09;12.77;;;4.78;;
75922;SDS011;64602;47.542;19.090;2023-02-28T07:10:11;12.33;;;4.67;;
75922;SDS011;64602;47.542;19.090;2023-02-28T07:15:14;8.03;;;4.13;;
75922;SDS011;64602;47.542;19.090;2023-02-28T07:20:16;9.57;;;4.97;;
75922;SDS011;64602;47.542;19.090;2023-02-28T07:25:18;7.80;;;4.12;;
75922;SDS011;64602;47.542;19.090;2023-02-28T07:30:21;9.43;;;4.43;;
75922;SDS011;64602;47.542;19.090;2023-02-28T07:35:23;9.23;;;4.60;;
75922;SDS011;64602;47.542;19.090;2023-02-28T07:40:25;12.82;;;4.80;;
75922;SDS011;64602;47.542;19.090;2023-02-28T07:45:28;10.97;;;4.90;;
75922;SDS011;64602;47.542;19.090;2023-02-28T07:50:31;10.77;;;5.47;;
75922;SDS011;64602;47.542;19.090;2023-02-28T07:55:33;13.43;;;5.43;;
75922;SDS011;64602;47.542;19.090;2023-02-28T08:00:35;8.53;;;4.63;;
75922;SDS011;64602;47.542;19.090;2023-02-28T08:05:38;10.33;;;5.30;;
75922;SDS011;64602;47.542;19.090;2023-02-28T08:10:43;10.85;;;4.72;;
75922;SDS011;64602;47.542;19.090;2023-02-28T08:15:45;10.70;;;4.95;;
75922;SDS011;64602;47.542;19.090;2023-02-28T08:20:49;8.47;;;4.70;;
75922;SDS011;64602;47.542;19.090;2023-02-28T08:25:57;9.45;;;4.80;;
75922;SDS011;64602;47.542;19.090;2023-02-28T08:30:59;10.40;;;4.90;;
75922;SDS011;64602;47.542;19.090;2023-02-28T08:36:02;11.03;;;4.77;;
75922;SDS011;64602;47.542;19.090;2023-02-28T08:41:05;8.98;;;4.53;;
75922;SDS011;64602;47.542;19.090;2023-02-28T08:46:11;7.32;;;3.70;;
75922;SDS011;64602;47.542;19.090;2023-02-28T08:51:16;7.70;;;3.43;;
75922;SDS011;64602;47.542;19.090;2023-02-28T08:56:20;8.93;;;3.90;;
75922;SDS011;64602;47.542;19.090;2023-02-28T09:01:27;17.37;;;5.30;;
75922;SDS011;64602;47.542;19.090;2023-02-28T09:06:31;7.87;;;4.37;;
75922;SDS011;64602;47.542;19.090;2023-02-28T09:11:34;8.10;;;4.10;;
75922;SDS011;64602;47.542;19.090;2023-02-28T09:16:36;7.00;;;3.90;;
75922;SDS011;64602;47.542;19.090;2023-02-28T09:21:39;6.35;;;3.60;;
75922;SDS011;64602;47.542;19.090;2023-02-28T09:26:41;7.97;;;3.63;;
75922;SDS011;64602;47.542;19.090;2023-02-28T09:32:03;7.80;;;4.00;;
75922;SDS011;64602;47.542;19.090;2023-02-28T09:37:07;7.32;;;3.58;;
75922;SDS011;64602;47.542;19.090;2023-02-28T09:42:18;7.07;;;3.27;;
75922;SDS011;64602;47.542;19.090;2023-02-28T09:52:31;8.38;;;3.95;;
75922;SDS011;64602;47.542;19.090;2023-02-28T09:57:37;7.43;;;3.97;;
75922;SDS011;64602;47.542;19.090;2023-02-28T10:08:07;7.47;;;3.20;;
75922;SDS011;64602;47.542;19.090;2023-02-28T10:19:16;7.37;;;3.43;;
75922;SDS011;64602;47.542;19.090;2023-02-28T10:24:29;7.30;;;3.58;;
75922;SDS011;64602;47.542;19.090;2023-02-28T10:29:40;7.97;;;3.47;;
75922;SDS011;64602;47.542;19.090;2023-02-28T10:34:44;6.87;;;3.50;;
75922;SDS011;64602;47.542;19.090;2023-02-28T10:39:52;6.87;;;3.43;;
75922;SDS011;64602;47.542;19.090;2023-02-28T10:45:14;10.48;;;3.80;;
75922;SDS011;64602;47.542;19.090;2023-02-28T10:55:32;7.90;;;3.20;;
75922;SDS011;64602;47.542;19.090;2023-02-28T11:00:35;6.10;;;3.03;;
75922;SDS011;64602;47.542;19.090;2023-02-28T11:05:37;5.97;;;3.58;;
75922;SDS011;64602;47.542;19.090;2023-02-28T11:10:43;7.47;;;4.37;;
75922;SDS011;64602;47.542;19.090;2023-02-28T11:15:55;7.82;;;4.22;;
75922;SDS011;64602;47.542;19.090;2023-02-28T11:21:00;8.50;;;4.15;;
75922;SDS011;64602;47.542;19.090;2023-02-28T11:26:04;8.53;;;4.40;;
75922;SDS011;64602;47.542;19.090;2023-02-28T11:36:30;7.25;;;4.10;;
75922;SDS011;64602;47.542;19.090;2023-02-28T11:41:37;6.10;;;3.62;;
75922;SDS011;64602;47.542;19.090;2023-02-28T11:47:02;7.50;;;4.00;;
75922;SDS011;64602;47.542;19.090;2023-02-28T11:58:01;9.40;;;3.90;;
75922;SDS011;64602;47.542;19.090;2023-02-28T12:08:03;6.45;;;3.58;;
75922;SDS011;64602;47.542;19.090;2023-02-28T12:24:43;7.87;;;3.23;;
75922;SDS011;64602;47.542;19.090;2023-02-28T12:35:34;8.75;;;4.25;;
75922;SDS011;64602;47.542;19.090;2023-02-28T12:40:44;9.10;;;4.07;;
75922;SDS011;64602;47.542;19.090;2023-02-28T12:45:56;6.25;;;3.35;;
75922;SDS011;64602;47.542;19.090;2023-02-28T12:51:01;7.30;;;3.58;;
75922;SDS011;64602;47.542;19.090;2023-02-28T13:01:50;5.72;;;3.35;;
75922;SDS011;64602;47.542;19.090;2023-02-28T13:12:49;5.73;;;3.47;;
75922;SDS011;64602;47.542;19.090;2023-02-28T13:17:54;8.67;;;3.27;;
75922;SDS011;64602;47.542;19.090;2023-02-28T13:22:57;9.07;;;4.32;;
75922;SDS011;64602;47.542;19.090;2023-02-28T13:28:00;7.05;;;3.60;;
75922;SDS011;64602;47.542;19.090;2023-02-28T13:38:24;5.68;;;3.30;;
75922;SDS011;64602;47.542;19.090;2023-02-28T14:05:13;5.47;;;2.90;;
75922;SDS011;64602;47.542;19.090;2023-02-28T14:10:27;7.57;;;3.70;;
75922;SDS011;64602;47.542;19.090;2023-02-28T14:20:34;8.32;;;3.67;;
75922;SDS011;64602;47.542;19.090;2023-02-28T14:25:43;7.23;;;3.63;;
75922;SDS011;64602;47.542;19.090;2023-02-28T14:36:38;8.82;;;3.90;;
75922;SDS011;64602;47.542;19.090;2023-02-28T14:41:43;7.43;;;3.13;;
75922;SDS011;64602;47.542;19.090;2023-02-28T14:46:53;7.05;;;3.35;;
75922;SDS011;64602;47.542;19.090;2023-02-28T14:52:05;7.53;;;3.70;;
75922;SDS011;64602;47.542;19.090;2023-02-28T14:57:27;6.40;;;3.60;;
75922;SDS011;64602;47.542;19.090;2023-02-28T15:02:34;7.80;;;4.00;;
75922;SDS011;64602;47.542;19.090;2023-02-28T15:07:37;8.10;;;3.70;;
75922;SDS011;64602;47.542;19.090;2023-02-28T15:12:39;8.85;;;4.05;;
75922;SDS011;64602;47.542;19.090;2023-02-28T15:17:50;9.93;;;3.97;;
75922;SDS011;64602;47.542;19.090;2023-02-28T15:22:57;7.75;;;4.20;;
75922;SDS011;64602;47.542;19.090;2023-02-28T15:28:00;10.68;;;3.42;;
75922;SDS011;64602;47.542;19.090;2023-02-28T15:38:25;7.35;;;3.70;;
75922;SDS011;64602;47.542;19.090;2023-02-28T15:53:41;10.20;;;4.77;;
75922;SDS011;64602;47.542;19.090;2023-02-28T15:58:56;10.07;;;4.87;;
75922;SDS011;64602;47.542;19.090;2023-02-28T16:04:05;10.13;;;4.72;;
75922;SDS011;64602;47.542;19.090;2023-02-28T16:09:15;9.10;;;4.93;;
75922;SDS011;64602;47.542;19.090;2023-02-28T16:14:22;8.50;;;4.55;;
75922;SDS011;64602;47.542;19.090;2023-02-28T16:19:26;11.77;;;5.30;;
75922;SDS011;64602;47.542;19.090;2023-02-28T16:24:28;10.03;;;5.03;;
75922;SDS011;64602;47.542;19.090;2023-02-28T16:29:34;10.15;;;5.00;;
75922;SDS011;64602;47.542;19.090;2023-02-28T16:34:38;10.32;;;4.93;;
75922;SDS011;64602;47.542;19.090;2023-02-28T16:39:40;10.00;;;5.03;;
75922;SDS011;64602;47.542;19.090;2023-02-28T16:44:43;9.43;;;4.63;;
75922;SDS011;64602;47.542;19.090;2023-02-28T16:49:46;12.00;;;5.87;;
75922;SDS011;64602;47.542;19.090;2023-02-28T16:54:49;13.80;;;5.30;;
75922;SDS011;64602;47.542;19.090;2023-02-28T16:59:51;12.67;;;5.80;;
75922;SDS011;64602;47.542;19.090;2023-02-28T17:04:53;10.43;;;5.03;;
75922;SDS011;64602;47.542;19.090;2023-02-28T17:09:56;10.57;;;5.82;;
75922;SDS011;64602;47.542;19.090;2023-02-28T17:14:58;9.00;;;5.30;;
75922;SDS011;64602;47.542;19.090;2023-02-28T17:20:00;11.57;;;6.00;;
75922;SDS011;64602;47.542;19.090;2023-02-28T17:25:02;11.52;;;6.37;;
75922;SDS011;64602;47.542;19.090;2023-02-28T17:30:15;12.10;;;6.13;;
75922;SDS011;64602;47.542;19.090;2023-02-28T17:35:19;13.57;;;6.23;;
75922;SDS011;64602;47.542;19.090;2023-02-28T17:40:22;13.65;;;5.65;;
75922;SDS011;64602;47.542;19.090;2023-02-28T17:45:25;12.25;;;5.68;;
75922;SDS011;64602;47.542;19.090;2023-02-28T17:50:27;9.57;;;5.70;;
75922;SDS011;64602;47.542;19.090;2023-02-28T17:55:29;12.70;;;6.30;;
75922;SDS011;64602;47.542;19.090;2023-02-28T18:00:31;13.18;;;5.50;;
75922;SDS011;64602;47.542;19.090;2023-02-28T18:05:36;10.60;;;5.93;;
75922;SDS011;64602;47.542;19.090;2023-02-28T18:10:38;14.00;;;6.43;;
75922;SDS011;64602;47.542;19.090;2023-02-28T18:15:41;13.13;;;6.25;;
75922;SDS011;64602;47.542;19.090;2023-02-28T18:20:43;13.63;;;6.60;;
75922;SDS011;64602;47.542;19.090;2023-02-28T18:25:45;12.10;;;6.27;;
75922;SDS011;64602;47.542;19.090;2023-02-28T18:30:47;10.82;;;6.18;;
75922;SDS011;64602;47.542;19.090;2023-02-28T18:35:54;12.60;;;7.00;;
75922;SDS011;64602;47.542;19.090;2023-02-28T18:40:57;11.90;;;6.53;;
75922;SDS011;64602;47.542;19.090;2023-02-28T18:46:05;11.80;;;6.07;;
75922;SDS011;64602;47.542;19.090;2023-02-28T18:51:10;10.60;;;6.30;;
75922;SDS011;64602;47.542;19.090;2023-02-28T18:56:15;13.37;;;7.40;;
75922;SDS011;64602;47.542;19.090;2023-02-28T19:01:23;12.30;;;6.78;;
75922;SDS011;64602;47.542;19.090;2023-02-28T19:06:31;13.80;;;6.62;;
75922;SDS011;64602;47.542;19.090;2023-02-28T19:11:34;13.33;;;8.07;;
75922;SDS011;64602;47.542;19.090;2023-02-28T19:16:37;15.63;;;8.50;;
75922;SDS011;64602;47.542;19.090;2023-02-28T19:21:39;14.55;;;7.90;;
75922;SDS011;64602;47.542;19.090;2023-02-28T19:26:42;15.15;;;7.53;;
75922;SDS011;64602;47.542;19.090;2023-02-28T19:31:44;14.63;;;7.40;;
75922;SDS011;64602;47.542;19.090;2023-02-28T19:36:46;17.10;;;6.87;;
75922;SDS011;64602;47.542;19.090;2023-02-28T19:41:48;13.27;;;7.68;;
75922;SDS011;64602;47.542;19.090;2023-02-28T19:46:51;18.60;;;8.40;;
75922;SDS011;64602;47.542;19.090;2023-02-28T19:51:53;17.77;;;8.57;;
75922;SDS011;64602;47.542;19.090;2023-02-28T19:56:55;14.38;;;7.85;;
75922;SDS011;64602;47.542;19.090;2023-02-28T20:02:02;18.37;;;8.30;;
75922;SDS011;64602;47.542;19.090;2023-02-28T20:07:04;16.67;;;8.13;;
75922;SDS011;64602;47.542;19.090;2023-02-28T20:12:07;15.13;;;7.43;;
75922;SDS011;64602;47.542;19.090;2023-02-28T20:17:24;14.93;;;7.72;;
75922;SDS011;64602;47.542;19.090;2023-02-28T20:22:26;13.67;;;6.87;;
75922;SDS011;64602;47.542;19.090;2023-02-28T20:27:28;16.37;;;8.30;;
75922;SDS011;64602;47.542;19.090;2023-02-28T20:32:33;13.88;;;7.30;;
75922;SDS011;64602;47.542;19.090;2023-02-28T20:37:36;16.20;;;8.33;;
75922;SDS011;64602;47.542;19.090;2023-02-28T20:42:39;17.30;;;8.38;;
75922;SDS011;64602;47.542;19.090;2023-02-28T20:47:42;15.95;;;8.23;;
75922;SDS011;64602;47.542;19.090;2023-02-28T20:52:45;15.97;;;8.47;;
75922;SDS011;64602;47.542;19.090;2023-02-28T20:57:47;16.80;;;8.43;;
75922;SDS011;64602;47.542;19.090;2023-02-28T21:02:50;19.60;;;9.20;;
75922;SDS011;64602;47.542;19.090;2023-02-28T21:07:52;17.62;;;9.20;;
75922;SDS011;64602;47.542;19.090;2023-02-28T21:12:55;17.13;;;8.87;;
